sensor_id;sensor_type;location;lat;lon;timestamp;P1;durP1;ratioP1;P2;durP2;ratioP2
62338;SDS011;48368;53.406;6.214;2022-07-29T00:00:42;4.45;;;1.10;;
62338;SDS011;48368;53.406;6.214;2022-07-29T00:03:11;4.43;;;0.80;;
62338;SDS011;48368;53.406;6.214;2022-07-29T00:05:38;5.88;;;1.20;;
62338;SDS011;48368;53.406;6.214;2022-07-29T00:08:04;3.58;;;1.25;;
62338;SDS011;48368;53.406;6.214;2022-07-29T00:10:30;3.22;;;0.95;;
62338;SDS011;48368;53.406;6.214;2022-07-29T00:12:56;3.72;;;1.70;;
62338;SDS011;48368;53.406;6.214;2022-07-29T00:15:22;3.25;;;1.20;;
62338;SDS011;48368;53.406;6.214;2022-07-29T00:17:47;3.75;;;1.13;;
62338;SDS011;48368;53.406;6.214;2022-07-29T00:20:13;3.10;;;1.15;;
62338;SDS011;48368;53.406;6.214;2022-07-29T00:22:39;4.35;;;1.23;;
62338;SDS011;48368;53.406;6.214;2022-07-29T00:25:05;4.88;;;1.20;;
62338;SDS011;48368;53.406;6.214;2022-07-29T00:27:31;6.70;;;1.35;;
62338;SDS011;48368;53.406;6.214;2022-07-29T00:29:56;3.50;;;1.17;;
62338;SDS011;48368;53.406;6.214;2022-07-29T00:32:22;10.45;;;2.92;;
62338;SDS011;48368;53.406;6.214;2022-07-29T00:34:47;4.57;;;1.55;;
62338;SDS011;48368;53.406;6.214;2022-07-29T00:37:31;6.63;;;1.20;;
62338;SDS011;48368;53.406;6.214;2022-07-29T00:39:57;4.03;;;1.23;;
62338;SDS011;48368;53.406;6.214;2022-07-29T00:42:23;4.47;;;1.95;;
62338;SDS011;48368;53.406;6.214;2022-07-29T00:44:48;3.35;;;1.30;;
62338;SDS011;48368;53.406;6.214;2022-07-29T00:47:14;5.05;;;1.70;;
62338;SDS011;48368;53.406;6.214;2022-07-29T00:49:40;3.78;;;1.63;;
62338;SDS011;48368;53.406;6.214;2022-07-29T00:52:07;5.95;;;1.58;;
62338;SDS011;48368;53.406;6.214;2022-07-29T00:54:34;6.53;;;1.90;;
62338;SDS011;48368;53.406;6.214;2022-07-29T00:57:01;6.95;;;1.70;;
62338;SDS011;48368;53.406;6.214;2022-07-29T00:59:27;3.30;;;1.77;;
62338;SDS011;48368;53.406;6.214;2022-07-29T01:01:53;4.78;;;1.60;;
62338;SDS011;48368;53.406;6.214;2022-07-29T01:04:20;5.50;;;1.75;;
62338;SDS011;48368;53.406;6.214;2022-07-29T01:06:46;4.13;;;1.50;;
62338;SDS011;48368;53.406;6.214;2022-07-29T01:09:15;7.00;;;1.70;;
62338;SDS011;48368;53.406;6.214;2022-07-29T01:11:43;5.38;;;2.13;;
62338;SDS011;48368;53.406;6.214;2022-07-29T01:14:09;7.05;;;2.70;;
62338;SDS011;48368;53.406;6.214;2022-07-29T01:16:42;6.70;;;1.85;;
62338;SDS011;48368;53.406;6.214;2022-07-29T01:23:01;3.75;;;1.60;;
62338;SDS011;48368;53.406;6.214;2022-07-29T01:28:34;4.13;;;1.77;;
62338;SDS011;48368;53.406;6.214;2022-07-29T01:31:02;8.23;;;1.95;;
62338;SDS011;48368;53.406;6.214;2022-07-29T01:33:29;6.78;;;1.95;;
62338;SDS011;48368;53.406;6.214;2022-07-29T01:36:17;6.32;;;1.70;;
62338;SDS011;48368;53.406;6.214;2022-07-29T01:39:07;6.07;;;2.00;;
62338;SDS011;48368;53.406;6.214;2022-07-29T01:41:36;5.35;;;2.15;;
62338;SDS011;48368;53.406;6.214;2022-07-29T01:44:16;4.00;;;1.90;;
62338;SDS011;48368;53.406;6.214;2022-07-29T01:46:55;5.72;;;2.40;;
62338;SDS011;48368;53.406;6.214;2022-07-29T01:49:26;7.60;;;2.22;;
62338;SDS011;48368;53.406;6.214;2022-07-29T01:51:57;7.30;;;2.30;;
62338;SDS011;48368;53.406;6.214;2022-07-29T01:57:11;7.65;;;2.42;;
62338;SDS011;48368;53.406;6.214;2022-07-29T01:59:40;4.88;;;2.08;;
62338;SDS011;48368;53.406;6.214;2022-07-29T02:02:08;7.10;;;2.10;;
62338;SDS011;48368;53.406;6.214;2022-07-29T02:04:36;6.25;;;2.10;;
62338;SDS011;48368;53.406;6.214;2022-07-29T02:07:03;6.00;;;1.88;;
62338;SDS011;48368;53.406;6.214;2022-07-29T02:09:33;6.60;;;1.95;;
62338;SDS011;48368;53.406;6.214;2022-07-29T02:12:02;3.95;;;1.73;;
62338;SDS011;48368;53.406;6.214;2022-07-29T02:14:30;5.38;;;1.95;;
62338;SDS011;48368;53.406;6.214;2022-07-29T02:17:00;4.45;;;1.88;;
62338;SDS011;48368;53.406;6.214;2022-07-29T02:19:27;4.13;;;1.90;;
62338;SDS011;48368;53.406;6.214;2022-07-29T02:21:54;4.47;;;2.17;;
62338;SDS011;48368;53.406;6.214;2022-07-29T02:24:22;7.05;;;2.03;;
62338;SDS011;48368;53.406;6.214;2022-07-29T02:26:49;5.97;;;2.05;;
62338;SDS011;48368;53.406;6.214;2022-07-29T02:29:18;5.05;;;2.00;;
62338;SDS011;48368;53.406;6.214;2022-07-29T02:31:47;7.45;;;2.10;;
62338;SDS011;48368;53.406;6.214;2022-07-29T02:34:14;9.38;;;1.70;;
62338;SDS011;48368;53.406;6.214;2022-07-29T02:36:42;5.68;;;1.83;;
62338;SDS011;48368;53.406;6.214;2022-07-29T02:39:09;5.53;;;1.58;;
62338;SDS011;48368;53.406;6.214;2022-07-29T02:41:41;3.05;;;1.50;;
62338;SDS011;48368;53.406;6.214;2022-07-29T02:44:25;7.63;;;1.73;;
62338;SDS011;48368;53.406;6.214;2022-07-29T02:46:52;6.13;;;1.90;;
62338;SDS011;48368;53.406;6.214;2022-07-29T02:49:28;6.13;;;1.90;;
62338;SDS011;48368;53.406;6.214;2022-07-29T02:52:05;5.28;;;1.80;;
62338;SDS011;48368;53.406;6.214;2022-07-29T02:55:02;5.93;;;1.67;;
62338;SDS011;48368;53.406;6.214;2022-07-29T02:57:57;5.20;;;1.70;;
62338;SDS011;48368;53.406;6.214;2022-07-29T03:00:28;5.47;;;1.63;;
62338;SDS011;48368;53.406;6.214;2022-07-29T03:02:56;4.03;;;2.05;;
62338;SDS011;48368;53.406;6.214;2022-07-29T03:05:24;6.07;;;1.73;;
62338;SDS011;48368;53.406;6.214;2022-07-29T03:07:57;4.22;;;1.80;;
62338;SDS011;48368;53.406;6.214;2022-07-29T03:10:26;3.60;;;1.77;;
62338;SDS011;48368;53.406;6.214;2022-07-29T03:12:52;7.38;;;2.00;;
62338;SDS011;48368;53.406;6.214;2022-07-29T03:15:20;5.70;;;2.00;;
62338;SDS011;48368;53.406;6.214;2022-07-29T03:17:47;3.50;;;1.85;;
62338;SDS011;48368;53.406;6.214;2022-07-29T03:20:14;5.78;;;1.85;;
62338;SDS011;48368;53.406;6.214;2022-07-29T03:22:40;7.22;;;2.17;;
62338;SDS011;48368;53.406;6.214;2022-07-29T03:27:38;8.20;;;2.10;;
62338;SDS011;48368;53.406;6.214;2022-07-29T03:30:04;4.90;;;1.80;;
62338;SDS011;48368;53.406;6.214;2022-07-29T03:32:31;5.50;;;1.63;;
62338;SDS011;48368;53.406;6.214;2022-07-29T03:34:57;9.02;;;2.13;;
62338;SDS011;48368;53.406;6.214;2022-07-29T03:37:23;5.93;;;2.00;;
62338;SDS011;48368;53.406;6.214;2022-07-29T03:39:49;5.40;;;1.73;;
62338;SDS011;48368;53.406;6.214;2022-07-29T03:42:17;7.13;;;2.22;;
62338;SDS011;48368;53.406;6.214;2022-07-29T03:44:46;10.10;;;2.13;;
62338;SDS011;48368;53.406;6.214;2022-07-29T03:47:14;8.10;;;2.40;;
62338;SDS011;48368;53.406;6.214;2022-07-29T03:49:41;6.10;;;2.40;;
62338;SDS011;48368;53.406;6.214;2022-07-29T03:52:09;5.32;;;2.00;;
62338;SDS011;48368;53.406;6.214;2022-07-29T03:54:35;4.65;;;1.80;;
62338;SDS011;48368;53.406;6.214;2022-07-29T03:57:01;5.93;;;1.90;;
62338;SDS011;48368;53.406;6.214;2022-07-29T03:59:28;6.25;;;2.28;;
62338;SDS011;48368;53.406;6.214;2022-07-29T04:01:57;5.80;;;2.28;;
62338;SDS011;48368;53.406;6.214;2022-07-29T04:04:24;5.47;;;1.90;;
62338;SDS011;48368;53.406;6.214;2022-07-29T04:06:50;6.32;;;2.00;;
62338;SDS011;48368;53.406;6.214;2022-07-29T04:09:16;5.03;;;2.22;;
62338;SDS011;48368;53.406;6.214;2022-07-29T04:11:42;10.90;;;2.75;;
62338;SDS011;48368;53.406;6.214;2022-07-29T04:14:08;6.35;;;2.20;;
62338;SDS011;48368;53.406;6.214;2022-07-29T04:16:34;4.60;;;2.05;;
62338;SDS011;48368;53.406;6.214;2022-07-29T04:19:00;8.25;;;2.20;;
62338;SDS011;48368;53.406;6.214;2022-07-29T04:21:25;6.85;;;2.13;;
62338;SDS011;48368;53.406;6.214;2022-07-29T04:23:51;7.97;;;2.20;;
62338;SDS011;48368;53.406;6.214;2022-07-29T04:26:17;4.78;;;2.13;;
62338;SDS011;48368;53.406;6.214;2022-07-29T04:28:44;9.50;;;2.25;;
62338;SDS011;48368;53.406;6.214;2022-07-29T04:31:10;5.68;;;2.35;;
62338;SDS011;48368;53.406;6.214;2022-07-29T04:33:37;4.45;;;2.33;;
62338;SDS011;48368;53.406;6.214;2022-07-29T04:36:03;5.22;;;2.17;;
62338;SDS011;48368;53.406;6.214;2022-07-29T04:38:29;8.10;;;2.88;;
62338;SDS011;48368;53.406;6.214;2022-07-29T04:40:55;6.85;;;2.20;;
62338;SDS011;48368;53.406;6.214;2022-07-29T04:43:21;8.73;;;2.72;;
62338;SDS011;48368;53.406;6.214;2022-07-29T04:45:46;6.25;;;2.25;;
62338;SDS011;48368;53.406;6.214;2022-07-29T04:48:12;7.18;;;2.35;;
62338;SDS011;48368;53.406;6.214;2022-07-29T04:50:38;10.43;;;2.65;;
62338;SDS011;48368;53.406;6.214;2022-07-29T04:53:04;6.28;;;2.10;;
62338;SDS011;48368;53.406;6.214;2022-07-29T04:55:30;8.23;;;2.33;;
62338;SDS011;48368;53.406;6.214;2022-07-29T04:57:56;5.60;;;2.28;;
62338;SDS011;48368;53.406;6.214;2022-07-29T05:00:22;7.38;;;2.22;;
62338;SDS011;48368;53.406;6.214;2022-07-29T05:02:48;11.05;;;2.80;;
62338;SDS011;48368;53.406;6.214;2022-07-29T05:05:14;3.85;;;2.20;;
62338;SDS011;48368;53.406;6.214;2022-07-29T05:07:40;6.15;;;2.30;;
62338;SDS011;48368;53.406;6.214;2022-07-29T05:10:06;8.35;;;2.88;;
62338;SDS011;48368;53.406;6.214;2022-07-29T05:12:32;7.50;;;2.70;;
62338;SDS011;48368;53.406;6.214;2022-07-29T05:14:58;9.90;;;2.50;;
62338;SDS011;48368;53.406;6.214;2022-07-29T05:17:24;7.28;;;2.40;;
62338;SDS011;48368;53.406;6.214;2022-07-29T05:19:50;8.05;;;2.55;;
62338;SDS011;48368;53.406;6.214;2022-07-29T05:22:19;5.88;;;2.33;;
62338;SDS011;48368;53.406;6.214;2022-07-29T05:24:46;7.03;;;2.40;;
62338;SDS011;48368;53.406;6.214;2022-07-29T05:27:12;11.15;;;3.47;;
62338;SDS011;48368;53.406;6.214;2022-07-29T05:29:38;7.90;;;2.75;;
62338;SDS011;48368;53.406;6.214;2022-07-29T05:32:04;9.52;;;2.53;;
62338;SDS011;48368;53.406;6.214;2022-07-29T05:34:30;8.15;;;2.50;;
62338;SDS011;48368;53.406;6.214;2022-07-29T05:36:56;7.88;;;2.55;;
62338;SDS011;48368;53.406;6.214;2022-07-29T05:39:22;9.32;;;2.35;;
62338;SDS011;48368;53.406;6.214;2022-07-29T05:41:48;9.77;;;2.58;;
62338;SDS011;48368;53.406;6.214;2022-07-29T05:44:14;9.95;;;2.78;;
62338;SDS011;48368;53.406;6.214;2022-07-29T05:46:40;7.35;;;3.28;;
62338;SDS011;48368;53.406;6.214;2022-07-29T05:49:05;9.27;;;2.50;;
62338;SDS011;48368;53.406;6.214;2022-07-29T05:51:35;8.18;;;2.60;;
62338;SDS011;48368;53.406;6.214;2022-07-29T05:54:01;9.45;;;2.53;;
62338;SDS011;48368;53.406;6.214;2022-07-29T05:56:27;9.80;;;2.90;;
62338;SDS011;48368;53.406;6.214;2022-07-29T05:58:53;9.43;;;2.97;;
62338;SDS011;48368;53.406;6.214;2022-07-29T06:01:19;4.93;;;2.35;;
62338;SDS011;48368;53.406;6.214;2022-07-29T06:03:45;5.85;;;2.90;;
62338;SDS011;48368;53.406;6.214;2022-07-29T06:06:10;9.35;;;2.90;;
62338;SDS011;48368;53.406;6.214;2022-07-29T06:08:36;7.78;;;2.53;;
62338;SDS011;48368;53.406;6.214;2022-07-29T06:11:03;7.18;;;2.42;;
62338;SDS011;48368;53.406;6.214;2022-07-29T06:13:29;9.55;;;2.22;;
62338;SDS011;48368;53.406;6.214;2022-07-29T06:15:55;6.95;;;2.03;;
62338;SDS011;48368;53.406;6.214;2022-07-29T06:18:21;5.95;;;2.05;;
62338;SDS011;48368;53.406;6.214;2022-07-29T06:20:51;7.95;;;2.80;;
62338;SDS011;48368;53.406;6.214;2022-07-29T06:23:18;7.82;;;2.38;;
62338;SDS011;48368;53.406;6.214;2022-07-29T06:25:45;5.50;;;2.10;;
62338;SDS011;48368;53.406;6.214;2022-07-29T06:28:11;10.00;;;3.05;;
62338;SDS011;48368;53.406;6.214;2022-07-29T06:30:38;9.52;;;2.75;;
62338;SDS011;48368;53.406;6.214;2022-07-29T06:33:04;12.48;;;3.08;;
62338;SDS011;48368;53.406;6.214;2022-07-29T06:35:30;7.43;;;2.17;;
62338;SDS011;48368;53.406;6.214;2022-07-29T06:38:00;8.25;;;2.55;;
62338;SDS011;48368;53.406;6.214;2022-07-29T06:40:26;12.50;;;2.38;;
62338;SDS011;48368;53.406;6.214;2022-07-29T06:43:10;7.80;;;2.25;;
62338;SDS011;48368;53.406;6.214;2022-07-29T06:45:35;9.15;;;2.45;;
62338;SDS011;48368;53.406;6.214;2022-07-29T06:48:01;7.82;;;2.30;;
62338;SDS011;48368;53.406;6.214;2022-07-29T06:50:27;8.30;;;2.92;;
62338;SDS011;48368;53.406;6.214;2022-07-29T06:52:53;7.88;;;2.50;;
62338;SDS011;48368;53.406;6.214;2022-07-29T06:55:18;9.30;;;2.67;;
62338;SDS011;48368;53.406;6.214;2022-07-29T06:57:44;6.65;;;2.15;;
62338;SDS011;48368;53.406;6.214;2022-07-29T07:00:11;7.53;;;3.05;;
62338;SDS011;48368;53.406;6.214;2022-07-29T07:02:37;11.30;;;2.50;;
62338;SDS011;48368;53.406;6.214;2022-07-29T07:05:03;6.82;;;2.42;;
62338;SDS011;48368;53.406;6.214;2022-07-29T07:07:30;13.00;;;2.40;;
62338;SDS011;48368;53.406;6.214;2022-07-29T07:09:56;15.30;;;2.90;;
62338;SDS011;48368;53.406;6.214;2022-07-29T07:12:22;8.35;;;2.40;;
62338;SDS011;48368;53.406;6.214;2022-07-29T07:14:47;8.02;;;2.00;;
62338;SDS011;48368;53.406;6.214;2022-07-29T07:17:13;7.10;;;3.47;;
62338;SDS011;48368;53.406;6.214;2022-07-29T07:19:42;11.70;;;2.92;;
62338;SDS011;48368;53.406;6.214;2022-07-29T07:22:07;6.25;;;2.42;;
62338;SDS011;48368;53.406;6.214;2022-07-29T07:24:33;9.55;;;2.53;;
62338;SDS011;48368;53.406;6.214;2022-07-29T07:26:59;11.80;;;2.67;;
62338;SDS011;48368;53.406;6.214;2022-07-29T07:29:24;12.85;;;2.75;;
62338;SDS011;48368;53.406;6.214;2022-07-29T07:31:50;9.73;;;2.47;;
62338;SDS011;48368;53.406;6.214;2022-07-29T07:34:15;6.15;;;2.25;;
62338;SDS011;48368;53.406;6.214;2022-07-29T07:36:41;6.82;;;2.47;;
62338;SDS011;48368;53.406;6.214;2022-07-29T07:39:07;8.18;;;2.65;;
62338;SDS011;48368;53.406;6.214;2022-07-29T07:41:32;9.45;;;3.20;;
62338;SDS011;48368;53.406;6.214;2022-07-29T07:43:58;6.65;;;2.10;;
62338;SDS011;48368;53.406;6.214;2022-07-29T07:46:24;6.63;;;2.45;;
62338;SDS011;48368;53.406;6.214;2022-07-29T07:48:49;10.35;;;2.83;;
62338;SDS011;48368;53.406;6.214;2022-07-29T07:51:17;12.02;;;2.80;;
62338;SDS011;48368;53.406;6.214;2022-07-29T07:53:43;9.95;;;2.60;;
62338;SDS011;48368;53.406;6.214;2022-07-29T07:56:09;10.50;;;2.50;;
62338;SDS011;48368;53.406;6.214;2022-07-29T07:58:35;10.82;;;2.70;;
62338;SDS011;48368;53.406;6.214;2022-07-29T08:01:01;7.82;;;2.30;;
62338;SDS011;48368;53.406;6.214;2022-07-29T08:03:27;9.90;;;2.47;;
62338;SDS011;48368;53.406;6.214;2022-07-29T08:05:52;6.03;;;2.33;;
62338;SDS011;48368;53.406;6.214;2022-07-29T08:08:19;6.97;;;2.85;;
62338;SDS011;48368;53.406;6.214;2022-07-29T08:10:45;7.38;;;2.78;;
62338;SDS011;48368;53.406;6.214;2022-07-29T08:13:17;6.63;;;2.58;;
62338;SDS011;48368;53.406;6.214;2022-07-29T08:15:45;6.90;;;2.40;;
62338;SDS011;48368;53.406;6.214;2022-07-29T08:18:11;8.48;;;2.70;;
62338;SDS011;48368;53.406;6.214;2022-07-29T08:20:38;6.38;;;2.17;;
62338;SDS011;48368;53.406;6.214;2022-07-29T08:23:05;6.85;;;2.67;;
62338;SDS011;48368;53.406;6.214;2022-07-29T08:25:35;14.13;;;3.53;;
62338;SDS011;48368;53.406;6.214;2022-07-29T08:28:03;9.13;;;3.40;;
62338;SDS011;48368;53.406;6.214;2022-07-29T08:30:28;8.35;;;2.58;;
62338;SDS011;48368;53.406;6.214;2022-07-29T08:32:54;10.00;;;3.00;;
62338;SDS011;48368;53.406;6.214;2022-07-29T08:35:20;8.13;;;2.70;;
62338;SDS011;48368;53.406;6.214;2022-07-29T08:37:47;7.85;;;2.88;;
62338;SDS011;48368;53.406;6.214;2022-07-29T08:40:12;5.55;;;2.63;;
62338;SDS011;48368;53.406;6.214;2022-07-29T08:42:39;8.27;;;2.85;;
62338;SDS011;48368;53.406;6.214;2022-07-29T08:45:05;9.25;;;2.85;;
62338;SDS011;48368;53.406;6.214;2022-07-29T08:47:31;9.07;;;2.92;;
62338;SDS011;48368;53.406;6.214;2022-07-29T08:49:58;9.02;;;3.50;;
62338;SDS011;48368;53.406;6.214;2022-07-29T08:52:24;10.63;;;3.00;;
62338;SDS011;48368;53.406;6.214;2022-07-29T08:54:51;9.27;;;2.88;;
62338;SDS011;48368;53.406;6.214;2022-07-29T08:57:18;10.27;;;3.58;;
62338;SDS011;48368;53.406;6.214;2022-07-29T08:59:45;7.35;;;3.20;;
62338;SDS011;48368;53.406;6.214;2022-07-29T09:02:15;11.57;;;3.53;;
62338;SDS011;48368;53.406;6.214;2022-07-29T09:04:47;9.82;;;3.47;;
62338;SDS011;48368;53.406;6.214;2022-07-29T09:07:17;7.43;;;3.17;;
62338;SDS011;48368;53.406;6.214;2022-07-29T09:09:44;9.82;;;4.03;;
62338;SDS011;48368;53.406;6.214;2022-07-29T09:12:10;14.10;;;4.03;;
62338;SDS011;48368;53.406;6.214;2022-07-29T09:14:39;9.45;;;3.92;;
62338;SDS011;48368;53.406;6.214;2022-07-29T09:17:06;9.57;;;3.45;;
62338;SDS011;48368;53.406;6.214;2022-07-29T09:19:34;9.02;;;3.20;;
62338;SDS011;48368;53.406;6.214;2022-07-29T09:22:01;8.18;;;2.97;;
62338;SDS011;48368;53.406;6.214;2022-07-29T09:27:00;7.85;;;4.32;;
62338;SDS011;48368;53.406;6.214;2022-07-29T09:29:26;9.48;;;3.80;;
62338;SDS011;48368;53.406;6.214;2022-07-29T09:31:53;8.10;;;3.00;;
62338;SDS011;48368;53.406;6.214;2022-07-29T09:34:23;8.90;;;3.00;;
62338;SDS011;48368;53.406;6.214;2022-07-29T09:36:50;10.23;;;3.72;;
62338;SDS011;48368;53.406;6.214;2022-07-29T09:39:26;13.02;;;4.25;;
62338;SDS011;48368;53.406;6.214;2022-07-29T09:42:04;6.53;;;3.13;;
62338;SDS011;48368;53.406;6.214;2022-07-29T09:44:40;8.57;;;3.50;;
62338;SDS011;48368;53.406;6.214;2022-07-29T09:47:10;11.02;;;4.55;;
62338;SDS011;48368;53.406;6.214;2022-07-29T09:49:49;9.80;;;3.75;;
62338;SDS011;48368;53.406;6.214;2022-07-29T09:52:23;9.85;;;3.60;;
62338;SDS011;48368;53.406;6.214;2022-07-29T09:54:49;10.98;;;3.92;;
62338;SDS011;48368;53.406;6.214;2022-07-29T09:57:23;9.25;;;4.15;;
62338;SDS011;48368;53.406;6.214;2022-07-29T10:00:14;10.10;;;3.88;;
62338;SDS011;48368;53.406;6.214;2022-07-29T10:02:45;10.63;;;3.70;;
62338;SDS011;48368;53.406;6.214;2022-07-29T10:05:22;6.47;;;3.42;;
62338;SDS011;48368;53.406;6.214;2022-07-29T10:07:53;12.15;;;4.05;;
62338;SDS011;48368;53.406;6.214;2022-07-29T10:10:23;10.68;;;3.97;;
62338;SDS011;48368;53.406;6.214;2022-07-29T10:12:57;7.28;;;3.45;;
62338;SDS011;48368;53.406;6.214;2022-07-29T10:15:24;8.98;;;3.35;;
62338;SDS011;48368;53.406;6.214;2022-07-29T10:17:52;11.55;;;3.20;;
62338;SDS011;48368;53.406;6.214;2022-07-29T10:20:20;10.07;;;3.55;;
62338;SDS011;48368;53.406;6.214;2022-07-29T10:22:47;8.90;;;3.13;;
62338;SDS011;48368;53.406;6.214;2022-07-29T10:25:16;16.17;;;3.97;;
62338;SDS011;48368;53.406;6.214;2022-07-29T10:27:42;10.10;;;4.18;;
62338;SDS011;48368;53.406;6.214;2022-07-29T10:30:09;12.50;;;4.25;;
62338;SDS011;48368;53.406;6.214;2022-07-29T10:35:15;10.05;;;3.38;;
62338;SDS011;48368;53.406;6.214;2022-07-29T10:43:50;9.13;;;3.92;;
62338;SDS011;48368;53.406;6.214;2022-07-29T10:46:18;13.05;;;4.60;;
62338;SDS011;48368;53.406;6.214;2022-07-29T10:54:15;10.00;;;3.78;;
62338;SDS011;48368;53.406;6.214;2022-07-29T10:56:42;12.82;;;3.95;;
62338;SDS011;48368;53.406;6.214;2022-07-29T11:01:46;7.30;;;3.40;;
62338;SDS011;48368;53.406;6.214;2022-07-29T11:04:13;11.07;;;3.58;;
62338;SDS011;48368;53.406;6.214;2022-07-29T11:09:23;12.35;;;4.00;;
62338;SDS011;48368;53.406;6.214;2022-07-29T11:11:48;9.35;;;4.10;;
62338;SDS011;48368;53.406;6.214;2022-07-29T11:14:14;12.65;;;4.22;;
62338;SDS011;48368;53.406;6.214;2022-07-29T11:16:58;16.90;;;4.90;;
62338;SDS011;48368;53.406;6.214;2022-07-29T11:19:27;11.88;;;4.03;;
62338;SDS011;48368;53.406;6.214;2022-07-29T11:21:53;12.27;;;4.13;;
62338;SDS011;48368;53.406;6.214;2022-07-29T11:24:20;10.93;;;4.03;;
62338;SDS011;48368;53.406;6.214;2022-07-29T11:29:38;10.30;;;4.10;;
62338;SDS011;48368;53.406;6.214;2022-07-29T11:32:12;11.10;;;4.32;;
62338;SDS011;48368;53.406;6.214;2022-07-29T11:34:40;10.43;;;3.92;;
62338;SDS011;48368;53.406;6.214;2022-07-29T11:39:33;9.40;;;3.90;;
62338;SDS011;48368;53.406;6.214;2022-07-29T11:44:59;9.35;;;4.25;;
62338;SDS011;48368;53.406;6.214;2022-07-29T11:47:27;11.52;;;4.05;;
62338;SDS011;48368;53.406;6.214;2022-07-29T11:49:54;14.40;;;4.40;;
62338;SDS011;48368;53.406;6.214;2022-07-29T11:52:22;10.82;;;4.10;;
62338;SDS011;48368;53.406;6.214;2022-07-29T11:54:48;10.75;;;4.05;;
62338;SDS011;48368;53.406;6.214;2022-07-29T11:57:16;11.23;;;4.22;;
62338;SDS011;48368;53.406;6.214;2022-07-29T11:59:44;11.68;;;4.60;;
62338;SDS011;48368;53.406;6.214;2022-07-29T12:02:11;14.48;;;4.47;;
62338;SDS011;48368;53.406;6.214;2022-07-29T12:07:29;9.95;;;4.93;;
62338;SDS011;48368;53.406;6.214;2022-07-29T12:09:58;11.57;;;4.32;;
62338;SDS011;48368;53.406;6.214;2022-07-29T12:12:24;8.43;;;4.40;;
62338;SDS011;48368;53.406;6.214;2022-07-29T12:14:50;12.32;;;4.35;;
62338;SDS011;48368;53.406;6.214;2022-07-29T12:17:32;9.75;;;4.38;;
62338;SDS011;48368;53.406;6.214;2022-07-29T12:20:00;12.32;;;4.82;;
62338;SDS011;48368;53.406;6.214;2022-07-29T12:22:39;11.80;;;3.90;;
62338;SDS011;48368;53.406;6.214;2022-07-29T12:25:07;12.63;;;4.70;;
62338;SDS011;48368;53.406;6.214;2022-07-29T12:27:35;11.02;;;4.40;;
62338;SDS011;48368;53.406;6.214;2022-07-29T12:30:06;8.20;;;4.43;;
62338;SDS011;48368;53.406;6.214;2022-07-29T12:35:04;12.43;;;5.32;;
62338;SDS011;48368;53.406;6.214;2022-07-29T12:37:35;14.00;;;5.10;;
62338;SDS011;48368;53.406;6.214;2022-07-29T12:40:03;8.40;;;4.13;;
62338;SDS011;48368;53.406;6.214;2022-07-29T12:42:30;12.95;;;4.60;;
62338;SDS011;48368;53.406;6.214;2022-07-29T12:44:56;11.90;;;4.30;;
62338;SDS011;48368;53.406;6.214;2022-07-29T12:47:22;15.48;;;5.50;;
62338;SDS011;48368;53.406;6.214;2022-07-29T12:49:49;11.05;;;4.15;;
62338;SDS011;48368;53.406;6.214;2022-07-29T12:52:34;10.50;;;5.18;;
62338;SDS011;48368;53.406;6.214;2022-07-29T12:55:00;14.50;;;5.22;;
62338;SDS011;48368;53.406;6.214;2022-07-29T12:57:26;11.82;;;4.72;;
62338;SDS011;48368;53.406;6.214;2022-07-29T13:00:25;15.48;;;5.13;;
62338;SDS011;48368;53.406;6.214;2022-07-29T13:02:53;17.92;;;5.57;;
62338;SDS011;48368;53.406;6.214;2022-07-29T13:05:20;9.57;;;4.95;;
62338;SDS011;48368;53.406;6.214;2022-07-29T13:07:46;16.80;;;5.88;;
62338;SDS011;48368;53.406;6.214;2022-07-29T13:10:13;14.95;;;6.47;;
62338;SDS011;48368;53.406;6.214;2022-07-29T13:15:30;12.93;;;5.05;;
62338;SDS011;48368;53.406;6.214;2022-07-29T13:17:57;14.70;;;5.40;;
62338;SDS011;48368;53.406;6.214;2022-07-29T13:20:24;15.07;;;6.15;;
62338;SDS011;48368;53.406;6.214;2022-07-29T13:22:54;13.75;;;5.97;;
62338;SDS011;48368;53.406;6.214;2022-07-29T13:25:28;13.50;;;6.20;;
62338;SDS011;48368;53.406;6.214;2022-07-29T13:27:55;13.35;;;5.22;;
62338;SDS011;48368;53.406;6.214;2022-07-29T13:30:21;10.32;;;4.90;;
62338;SDS011;48368;53.406;6.214;2022-07-29T13:32:48;17.90;;;5.18;;
62338;SDS011;48368;53.406;6.214;2022-07-29T13:35:14;14.30;;;5.07;;
62338;SDS011;48368;53.406;6.214;2022-07-29T13:37:40;12.40;;;5.40;;
62338;SDS011;48368;53.406;6.214;2022-07-29T13:40:06;14.15;;;4.85;;
62338;SDS011;48368;53.406;6.214;2022-07-29T13:42:33;15.82;;;5.15;;
62338;SDS011;48368;53.406;6.214;2022-07-29T13:44:59;14.30;;;5.43;;
62338;SDS011;48368;53.406;6.214;2022-07-29T13:47:26;16.08;;;6.45;;
62338;SDS011;48368;53.406;6.214;2022-07-29T13:49:52;12.32;;;6.22;;
62338;SDS011;48368;53.406;6.214;2022-07-29T13:52:18;15.75;;;4.97;;
62338;SDS011;48368;53.406;6.214;2022-07-29T13:54:44;10.98;;;4.40;;
62338;SDS011;48368;53.406;6.214;2022-07-29T13:57:10;9.50;;;4.40;;
62338;SDS011;48368;53.406;6.214;2022-07-29T13:59:37;14.32;;;4.90;;
62338;SDS011;48368;53.406;6.214;2022-07-29T14:02:04;16.20;;;5.45;;
62338;SDS011;48368;53.406;6.214;2022-07-29T14:04:30;13.77;;;5.10;;
62338;SDS011;48368;53.406;6.214;2022-07-29T14:06:56;16.02;;;4.47;;
62338;SDS011;48368;53.406;6.214;2022-07-29T14:09:22;11.93;;;5.47;;
62338;SDS011;48368;53.406;6.214;2022-07-29T14:11:48;15.88;;;5.18;;
62338;SDS011;48368;53.406;6.214;2022-07-29T14:14:15;8.48;;;4.47;;
62338;SDS011;48368;53.406;6.214;2022-07-29T14:16:40;12.32;;;4.60;;
62338;SDS011;48368;53.406;6.214;2022-07-29T14:19:06;19.77;;;4.85;;
62338;SDS011;48368;53.406;6.214;2022-07-29T14:21:32;11.38;;;4.22;;
62338;SDS011;48368;53.406;6.214;2022-07-29T14:23:58;9.38;;;4.80;;
62338;SDS011;48368;53.406;6.214;2022-07-29T14:26:23;13.68;;;4.10;;
62338;SDS011;48368;53.406;6.214;2022-07-29T14:28:49;13.52;;;5.07;;
62338;SDS011;48368;53.406;6.214;2022-07-29T14:31:15;11.38;;;5.72;;
62338;SDS011;48368;53.406;6.214;2022-07-29T14:33:41;8.60;;;4.28;;
62338;SDS011;48368;53.406;6.214;2022-07-29T14:36:07;10.88;;;4.95;;
62338;SDS011;48368;53.406;6.214;2022-07-29T14:38:34;10.43;;;4.70;;
62338;SDS011;48368;53.406;6.214;2022-07-29T14:41:00;20.35;;;5.32;;
62338;SDS011;48368;53.406;6.214;2022-07-29T14:43:26;11.73;;;4.60;;
62338;SDS011;48368;53.406;6.214;2022-07-29T14:45:52;12.98;;;4.53;;
62338;SDS011;48368;53.406;6.214;2022-07-29T14:48:17;12.85;;;5.00;;
62338;SDS011;48368;53.406;6.214;2022-07-29T14:50:43;12.43;;;4.85;;
62338;SDS011;48368;53.406;6.214;2022-07-29T14:53:09;10.43;;;4.47;;
62338;SDS011;48368;53.406;6.214;2022-07-29T14:55:36;15.45;;;5.82;;
62338;SDS011;48368;53.406;6.214;2022-07-29T14:58:02;11.38;;;4.70;;
62338;SDS011;48368;53.406;6.214;2022-07-29T15:00:28;13.43;;;4.97;;
62338;SDS011;48368;53.406;6.214;2022-07-29T15:02:57;10.57;;;5.15;;
62338;SDS011;48368;53.406;6.214;2022-07-29T15:05:24;14.07;;;5.57;;
62338;SDS011;48368;53.406;6.214;2022-07-29T15:07:50;10.73;;;4.45;;
62338;SDS011;48368;53.406;6.214;2022-07-29T15:10:16;9.98;;;4.90;;
62338;SDS011;48368;53.406;6.214;2022-07-29T15:12:42;13.35;;;4.32;;
62338;SDS011;48368;53.406;6.214;2022-07-29T15:15:08;8.48;;;4.63;;
62338;SDS011;48368;53.406;6.214;2022-07-29T15:17:33;9.35;;;4.40;;
62338;SDS011;48368;53.406;6.214;2022-07-29T15:19:59;12.55;;;4.43;;
62338;SDS011;48368;53.406;6.214;2022-07-29T15:22:25;12.70;;;4.95;;
62338;SDS011;48368;53.406;6.214;2022-07-29T15:24:51;8.88;;;4.43;;
62338;SDS011;48368;53.406;6.214;2022-07-29T15:27:17;9.77;;;4.50;;
62338;SDS011;48368;53.406;6.214;2022-07-29T15:29:43;12.50;;;4.13;;
62338;SDS011;48368;53.406;6.214;2022-07-29T15:32:08;12.93;;;5.57;;
62338;SDS011;48368;53.406;6.214;2022-07-29T15:34:35;13.07;;;6.60;;
62338;SDS011;48368;53.406;6.214;2022-07-29T15:37:01;18.42;;;5.05;;